| time (UTC) | temp F | wind direction | speed knots | gust knots | rain 1hr in | rain 24hr in | rain mn in | humidity % | barometer mb |
| 20260904182047 | 61 | 240 | 1.7 | 2.6 | 0.00 | 0.00 | 0.00 | 81 | 1014.7 |
| 20260904181543 | 61 | 211 | 0.0 | 2.6 | 0.00 | 0.00 | 0.00 | 84 | 1014.8 |
| 20260904181042 | 61 | 222 | 0.9 | 1.7 | 0.00 | 0.00 | 0.00 | 85 | 1014.9 |
| 20260904180537 | 61 | 244 | 1.7 | 4.3 | 0.00 | 0.00 | 0.00 | 84 | 1014.7 |
| 20260904180032 | 60 | 218 | 0.0 | 1.7 | 0.00 | 0.00 | 0.00 | 84 | 1014.8 |
| 20260904175526 | 60 | 214 | 0.9 | 1.7 | 0.00 | 0.00 | 0.00 | 85 | 1014.8 |
| 20260904175025 | 60 | 228 | 0.9 | 1.7 | 0.00 | 0.00 | 0.00 | 86 | 1014.7 |
| 20260904174520 | 60 | 216 | 0.0 | 0.9 | 0.00 | 0.00 | 0.00 | 88 | 1014.9 |
| 20260904174017 | 60 | 219 | 0.0 | 0.9 | 0.00 | 0.00 | 0.00 | 89 | 1014.9 |
| 20260904173517 | 59 | 214 | 0.0 | 1.7 | 0.00 | 0.00 | 0.00 | 89 | 1014.9 |
| 20260904173012 | 59 | 215 | 0.9 | 1.7 | 0.00 | 0.00 | 0.00 | 88 | 1014.9 |
| 20260904172508 | 59 | 226 | 1.7 | 2.6 | 0.00 | 0.00 | 0.00 | 88 | 1014.7 |
| 20260904172007 | 59 | 212 | 0.0 | 0.9 | 0.00 | 0.00 | 0.00 | 87 | 1014.9 |
| 20260904171503 | 59 | 213 | 0.0 | 0.0 | 0.00 | 0.00 | 0.00 | 88 | 1014.9 |
| 20260904170958 | 59 | 213 | 0.0 | 0.0 | 0.00 | 0.00 | 0.00 | 87 | 1014.7 |
| 20260904170453 | 58 | 213 | 0.0 | 0.0 | 0.00 | 0.00 | 0.00 | 87 | 1014.7 |
| 20260904165949 | 58 | 219 | 0.0 | 0.0 | 0.00 | 0.00 | 0.00 | 89 | 1014.9 |
| 20260904165448 | 58 | 214 | 0.0 | 0.0 | 0.00 | 0.00 | 0.00 | 87 | 1014.7 |
| 20260904164947 | 58 | 214 | 0.0 | 0.0 | 0.00 | 0.00 | 0.00 | 89 | 1014.8 |
| 20260904164442 | 58 | 215 | 0.0 | 0.0 | 0.00 | 0.00 | 0.00 | 90 | 1014.8 |
| 20260904163938 | 58 | 217 | 0.0 | 0.0 | 0.00 | 0.00 | 0.00 | 91 | 1014.8 |
| 20260904163438 | 57 | 213 | 0.0 | 0.9 | 0.00 | 0.00 | 0.00 | 90 | 1014.8 |
| 20260904162938 | 57 | 217 | 0.0 | 0.0 | 0.00 | 0.00 | 0.00 | 91 | 1014.8 |
| 20260904162433 | 57 | 214 | 0.0 | 0.0 | 0.00 | 0.00 | 0.00 | 91 | 1014.7 |
| 20260904161928 | 56 | 218 | 0.0 | 0.9 | 0.00 | 0.00 | 0.00 | 91 | 1014.5 |
| 20260904161424 | 57 | 206 | 0.0 | 0.0 | 0.00 | 0.00 | 0.00 | 95 | 1014.6 |
| 20260904160920 | 56 | 205 | 0.0 | 0.0 | 0.00 | 0.00 | 0.00 | 96 | 1014.9 |
| 20260904160414 | 56 | 205 | 0.0 | 0.0 | 0.00 | 0.00 | 0.00 | 96 | 1014.8 |
| 20260904155909 | 55 | 205 | 0.0 | 0.0 | 0.00 | 0.00 | 0.00 | 96 | 1014.6 |
| 20260904155404 | 55 | 205 | 0.0 | 0.0 | 0.00 | 0.00 | 0.00 | 96 | 1014.6 |
| 20260904154902 | 55 | 205 | 0.0 | 0.0 | 0.00 | 0.00 | 0.00 | 97 | 1014.6 |
| 20260904154357 | 55 | 204 | 0.0 | 0.0 | 0.00 | 0.00 | 0.00 | 97 | 1014.5 |
| 20260904153853 | 54 | 193 | 0.0 | 0.0 | 0.00 | 0.00 | 0.00 | 98 | 1014.6 |
| 20260904153348 | 54 | 193 | 0.0 | 0.0 | 0.00 | 0.00 | 0.00 | 98 | 1014.5 |
| 20260904152845 | 54 | 193 | 0.0 | 0.0 | 0.00 | 0.00 | 0.00 | 99 | 1014.5 |
| 20260904152344 | 53 | 193 | 0.0 | 0.0 | 0.00 | 0.00 | 0.00 | 99 | 1014.5 |
| 20260904151839 | 53 | 193 | 0.0 | 0.0 | 0.00 | 0.00 | 0.00 | 99 | 1014.4 |
| 20260904151338 | 53 | 193 | 0.0 | 0.0 | 0.00 | 0.00 | 0.00 | 99 | 1014.3 |
| 20260904150834 | 53 | 193 | 0.0 | 0.0 | 0.00 | 0.00 | 0.00 | 99 | 1014.4 |
| 20260904150329 | 53 | 193 | 0.0 | 0.0 | 0.00 | 0.00 | 0.00 | 99 | 1014.5 |
| 20260904145826 | 53 | 193 | 0.0 | 0.0 | 0.00 | 0.00 | 0.00 | 99 | 1014.2 |
| 20260904145323 | 53 | 193 | 0.0 | 0.0 | 0.00 | 0.00 | 0.00 | 99 | 1014.1 |
| 20260904144819 | 53 | 193 | 0.0 | 0.0 | 0.00 | 0.00 | 0.00 | 99 | 1013.9 |
| 20260904144314 | 53 | 193 | 0.0 | 0.0 | 0.00 | 0.00 | 0.00 | 99 | 1014.0 |
| 20260904143809 | 53 | 193 | 0.0 | 0.0 | 0.00 | 0.00 | 0.00 | 99 | 1013.9 |
| 20260904143306 | 53 | 193 | 0.0 | 0.0 | 0.00 | 0.00 | 0.00 | 99 | 1013.9 |
| 20260904142802 | 53 | 193 | 0.0 | 0.0 | 0.00 | 0.00 | 0.00 | 99 | 1013.9 |
| 20260904142257 | 53 | 193 | 0.0 | 0.0 | 0.00 | 0.00 | 0.00 | 99 | 1013.7 |
| 20260904141752 | 53 | 193 | 0.0 | 0.0 | 0.00 | 0.00 | 0.00 | 99 | 1013.8 |
| 20260904141247 | 52 | 193 | 0.0 | 0.0 | 0.00 | 0.00 | 0.00 | 99 | 1013.7 |
| 20260904140743 | 52 | 193 | 0.0 | 0.0 | 0.00 | 0.00 | 0.00 | 99 | 1013.7 |
| 20260904140238 | 52 | 193 | 0.0 | 0.0 | 0.00 | 0.00 | 0.00 | 99 | 1013.7 |
| 20260904135737 | 52 | 193 | 0.0 | 0.0 | 0.00 | 0.00 | 0.00 | 99 | 1013.9 |
| 20260904135232 | 52 | 193 | 0.0 | 0.0 | 0.00 | 0.00 | 0.00 | 99 | 1013.8 |
| 20260904134728 | 52 | 193 | 0.0 | 0.0 | 0.00 | 0.00 | 0.00 | 99 | 1013.6 |
| 20260904134228 | 52 | 193 | 0.0 | 0.0 | 0.00 | 0.00 | 0.00 | 99 | 1013.5 |
| 20260904133722 | 52 | 193 | 0.0 | 0.0 | 0.00 | 0.00 | 0.00 | 99 | 1013.3 |
| 20260904133219 | 52 | 193 | 0.0 | 0.0 | 0.00 | 0.00 | 0.00 | 99 | 1013.2 |
| 20260904132718 | 52 | 193 | 0.0 | 0.0 | 0.00 | 0.00 | 0.00 | 99 | 1013.4 |
| 20260904132214 | 52 | 193 | 0.0 | 0.0 | 0.00 | 0.00 | 0.00 | 99 | 1013.3 |
| 20260904131713 | 52 | 193 | 0.0 | 0.0 | 0.00 | 0.00 | 0.00 | 99 | 1013.5 |
| 20260904131208 | 52 | 193 | 0.0 | 0.0 | 0.00 | 0.00 | 0.00 | 99 | 1013.1 |
| 20260904130703 | 52 | 193 | 0.0 | 0.0 | 0.00 | 0.00 | 0.00 | 99 | 1013.1 |
| 20260904130202 | 52 | 193 | 0.0 | 0.0 | 0.00 | 0.00 | 0.00 | 99 | 1013.2 |
| 20260904125659 | 52 | 193 | 0.0 | 0.0 | 0.00 | 0.00 | 0.00 | 99 | 1013.2 |
| 20260904125154 | 52 | 193 | 0.0 | 0.0 | 0.00 | 0.00 | 0.00 | 99 | 1013.3 |
| 20260904124649 | 52 | 193 | 0.0 | 0.0 | 0.00 | 0.00 | 0.00 | 99 | 1013.3 |
| 20260904124145 | 52 | 193 | 0.0 | 0.0 | 0.00 | 0.00 | 0.00 | 99 | 1012.9 |
| 20260904123645 | 52 | 193 | 0.0 | 0.0 | 0.00 | 0.00 | 0.00 | 99 | 1013.2 |
| 20260904123141 | 52 | 193 | 0.0 | 0.0 | 0.00 | 0.00 | 0.00 | 99 | 1012.9 |
| 20260904122640 | 52 | 193 | 0.0 | 0.0 | 0.00 | 0.00 | 0.00 | 99 | 1013.0 |
| 20260904122136 | 52 | 193 | 0.0 | 0.0 | 0.00 | 0.00 | 0.00 | 99 | 1013.2 |
| 20260904121631 | 52 | 193 | 0.0 | 0.0 | 0.00 | 0.00 | 0.00 | 99 | 1012.8 |
| 20260904121126 | 52 | 193 | 0.0 | 0.0 | 0.00 | 0.00 | 0.00 | 99 | 1012.8 |
| 20260904120622 | 52 | 193 | 0.0 | 0.0 | 0.00 | 0.00 | 0.00 | 99 | 1012.6 |
| 20260904120118 | 52 | 193 | 0.0 | 0.0 | 0.00 | 0.00 | 0.00 | 99 | 1012.8 |
| 20260904115613 | 52 | 193 | 0.0 | 0.0 | 0.00 | 0.00 | 0.00 | 99 | 1012.5 |
| 20260904115108 | 52 | 193 | 0.0 | 0.0 | 0.00 | 0.00 | 0.00 | 99 | 1012.3 |
| 20260904114608 | 52 | 193 | 0.0 | 0.0 | 0.00 | 0.00 | 0.00 | 99 | 1012.5 |
| 20260904114103 | 52 | 193 | 0.0 | 0.0 | 0.00 | 0.00 | 0.00 | 99 | 1012.2 |
| 20260904113557 | 52 | 193 | 0.0 | 0.0 | 0.00 | 0.00 | 0.00 | 99 | 1012.5 |
| 20260904113056 | 52 | 193 | 0.0 | 0.0 | 0.00 | 0.00 | 0.00 | 99 | 1012.3 |
| 20260904112552 | 52 | 193 | 0.0 | 0.0 | 0.00 | 0.00 | 0.00 | 99 | 1012.1 |
| 20260904112048 | 52 | 193 | 0.0 | 0.0 | 0.00 | 0.00 | 0.00 | 99 | 1012.2 |
| 20260904111543 | 52 | 193 | 0.0 | 0.0 | 0.00 | 0.00 | 0.00 | 99 | 1012.3 |
| 20260904111039 | 52 | 193 | 0.0 | 0.0 | 0.00 | 0.00 | 0.00 | 99 | 1012.1 |
| 20260904110538 | 52 | 193 | 0.0 | 0.0 | 0.00 | 0.00 | 0.00 | 99 | 1012.5 |
| 20260904110034 | 52 | 193 | 0.0 | 0.0 | 0.00 | 0.00 | 0.00 | 99 | 1012.3 |
| 20260904105527 | 52 | 193 | 0.0 | 0.0 | 0.00 | 0.00 | 0.00 | 99 | 1012.5 |
| 20260904105023 | 52 | 193 | 0.0 | 0.0 | 0.00 | 0.00 | 0.00 | 99 | 1012.2 |
| 20260904104518 | 52 | 193 | 0.0 | 0.0 | 0.00 | 0.00 | 0.00 | 99 | 1012.3 |
| 20260904104014 | 53 | 193 | 0.0 | 0.0 | 0.00 | 0.00 | 0.00 | 99 | 1012.3 |
| 20260904103510 | 53 | 193 | 0.0 | 0.0 | 0.00 | 0.00 | 0.00 | 99 | 1012.3 |
| 20260904103006 | 53 | 193 | 0.0 | 0.0 | 0.00 | 0.00 | 0.00 | 99 | 1012.2 |
| 20260904102501 | 53 | 193 | 0.0 | 0.0 | 0.00 | 0.00 | 0.00 | 99 | 1012.1 |
| 20260904101956 | 53 | 193 | 0.0 | 0.0 | 0.00 | 0.00 | 0.00 | 99 | 1012.5 |
| 20260904101453 | 53 | 193 | 0.0 | 0.0 | 0.00 | 0.00 | 0.00 | 99 | 1012.1 |
| 20260904100948 | 53 | 193 | 0.0 | 0.0 | 0.00 | 0.00 | 0.00 | 99 | 1012.3 |
| 20260904100444 | 53 | 193 | 0.0 | 0.0 | 0.00 | 0.00 | 0.00 | 99 | 1012.0 |
| 20260904095943 | 53 | 193 | 0.0 | 0.0 | 0.00 | 0.00 | 0.00 | 99 | 1012.1 |
| 20260904095438 | 53 | 193 | 0.0 | 0.0 | 0.00 | 0.00 | 0.00 | 99 | 1011.8 |
| 20260904094933 | 53 | 193 | 0.0 | 0.0 | 0.00 | 0.00 | 0.00 | 99 | 1012.2 |
| 20260904094428 | 53 | 193 | 0.0 | 0.0 | 0.00 | 0.00 | 0.00 | 99 | 1011.9 |
| 20260904093924 | 54 | 193 | 0.0 | 0.0 | 0.00 | 0.00 | 0.00 | 99 | 1011.9 |
| 20260904093420 | 54 | 193 | 0.0 | 0.0 | 0.00 | 0.00 | 0.00 | 99 | 1012.2 |
| 20260904092915 | 54 | 191 | 0.0 | 0.0 | 0.00 | 0.00 | 0.00 | 99 | 1012.3 |
| 20260904092412 | 54 | 194 | 0.0 | 0.0 | 0.00 | 0.00 | 0.00 | 99 | 1012.1 |
| 20260904091908 | 54 | 194 | 0.0 | 0.0 | 0.00 | 0.00 | 0.00 | 99 | 1012.1 |
| 20260904091403 | 54 | 194 | 0.0 | 0.0 | 0.00 | 0.00 | 0.00 | 99 | 1012.3 |
| 20260904090857 | 54 | 195 | 0.0 | 0.0 | 0.00 | 0.00 | 0.00 | 99 | 1012.3 |
| 20260904090353 | 54 | 195 | 0.0 | 0.0 | 0.00 | 0.00 | 0.00 | 99 | 1012.0 |
| 20260904085848 | 54 | 195 | 0.0 | 0.0 | 0.00 | 0.00 | 0.00 | 99 | 1012.0 |
| 20260904085343 | 54 | 195 | 0.0 | 0.0 | 0.00 | 0.00 | 0.00 | 99 | 1011.9 |
| 20260904084843 | 54 | 195 | 0.0 | 0.0 | 0.00 | 0.00 | 0.00 | 99 | 1011.9 |
| 20260904084340 | 54 | 195 | 0.0 | 0.0 | 0.00 | 0.00 | 0.00 | 99 | 1011.9 |
| 20260904083835 | 54 | 195 | 0.0 | 0.0 | 0.00 | 0.00 | 0.00 | 99 | 1012.0 |
| 20260904083332 | 54 | 195 | 0.0 | 0.0 | 0.00 | 0.00 | 0.00 | 99 | 1011.8 |
| 20260904082827 | 54 | 197 | 0.0 | 0.0 | 0.00 | 0.00 | 0.00 | 99 | 1011.9 |
| 20260904082321 | 54 | 200 | 0.0 | 0.0 | 0.00 | 0.00 | 0.00 | 98 | 1011.8 |
| 20260904081817 | 54 | 200 | 0.0 | 0.0 | 0.00 | 0.00 | 0.00 | 98 | 1011.6 |
| 20260904081312 | 54 | 200 | 0.0 | 0.0 | 0.00 | 0.00 | 0.00 | 98 | 1011.9 |
| 20260904080808 | 54 | 200 | 0.0 | 0.0 | 0.00 | 0.00 | 0.00 | 98 | 1011.7 |
| 20260904080303 | 54 | 200 | 0.0 | 0.0 | 0.00 | 0.00 | 0.00 | 98 | 1012.0 |
| 20260904075800 | 54 | 201 | 0.0 | 0.0 | 0.00 | 0.00 | 0.00 | 97 | 1011.9 |
| 20260904075254 | 54 | 201 | 0.0 | 0.0 | 0.00 | 0.00 | 0.00 | 97 | 1012.2 |
| 20260904074753 | 54 | 200 | 0.0 | 0.0 | 0.00 | 0.00 | 0.00 | 97 | 1012.2 |
| 20260904074248 | 55 | 200 | 0.0 | 0.0 | 0.00 | 0.00 | 0.00 | 97 | 1012.3 |
| 20260904073744 | 55 | 200 | 0.0 | 0.0 | 0.00 | 0.00 | 0.00 | 97 | 1012.2 |
| 20260904073240 | 55 | 200 | 0.0 | 0.0 | 0.00 | 0.00 | 0.00 | 96 | 1012.2 |
| 20260904072736 | 55 | 200 | 0.0 | 0.0 | 0.00 | 0.00 | 0.00 | 96 | 1012.1 |
| 20260904072229 | 55 | 200 | 0.0 | 0.0 | 0.00 | 0.00 | 0.00 | 96 | 1012.1 |
| 20260904071726 | 55 | 200 | 0.0 | 0.0 | 0.00 | 0.00 | 0.00 | 96 | 1012.2 |
| 20260904071225 | 55 | 200 | 0.0 | 0.0 | 0.00 | 0.00 | 0.00 | 96 | 1012.2 |
| 20260904070720 | 55 | 200 | 0.0 | 0.0 | 0.00 | 0.00 | 0.00 | 95 | 1012.2 |
| 20260904070219 | 55 | 200 | 0.0 | 0.0 | 0.00 | 0.00 | 0.00 | 95 | 1012.3 |
| 20260904065714 | 55 | 200 | 0.0 | 0.0 | 0.00 | 0.08 | 0.08 | 95 | 1012.3 |
| 20260904065211 | 55 | 200 | 0.0 | 0.0 | 0.05 | 0.08 | 0.08 | 94 | 1012.2 |
| 20260904064711 | 56 | 200 | 0.0 | 0.0 | 0.12 | 0.08 | 0.08 | 94 | 1012.1 |
| 20260904064206 | 56 | 200 | 0.0 | 0.0 | 0.07 | 0.07 | 0.07 | 93 | 1012.1 |
| 20260904063702 | 56 | 200 | 0.0 | 0.0 | 0.00 | 0.06 | 0.06 | 93 | 1012.3 |
| 20260904063157 | 56 | 200 | 0.0 | 0.0 | 0.00 | 0.06 | 0.06 | 92 | 1012.2 |
| 20260904062654 | 56 | 200 | 0.0 | 0.0 | 0.00 | 0.06 | 0.06 | 92 | 1012.2 |
| 20260904062149 | 56 | 200 | 0.0 | 0.0 | 0.00 | 0.06 | 0.06 | 91 | 1012.1 |
| 20260904061644 | 56 | 200 | 0.0 | 0.0 | 0.00 | 0.06 | 0.06 | 91 | 1011.9 |
| 20260904061141 | 57 | 200 | 0.0 | 0.0 | 0.00 | 0.06 | 0.06 | 90 | 1012.1 |
| 20260904060637 | 57 | 200 | 0.0 | 0.0 | 0.00 | 0.06 | 0.06 | 90 | 1012.1 |
| 20260904060132 | 56 | 200 | 0.0 | 0.0 | 0.00 | 0.06 | 0.06 | 89 | 1011.9 |
| 20260904055627 | 57 | 200 | 0.0 | 0.0 | 0.00 | 0.06 | 0.06 | 89 | 1011.9 |
| 20260904055122 | 57 | 199 | 0.0 | 0.0 | 0.00 | 0.06 | 0.06 | 89 | 1012.1 |
| 20260904054618 | 57 | 195 | 0.0 | 0.0 | 0.00 | 0.06 | 0.06 | 89 | 1011.8 |
| 20260904054114 | 57 | 198 | 0.0 | 0.0 | 0.00 | 0.06 | 0.06 | 89 | 1011.9 |
| 20260904053608 | 57 | 201 | 0.0 | 0.0 | 0.00 | 0.06 | 0.06 | 89 | 1011.9 |
| 20260904053103 | 57 | 201 | 0.0 | 0.0 | 0.00 | 0.06 | 0.06 | 88 | 1012.0 |
| 20260904052600 | 57 | 201 | 0.0 | 0.0 | 0.00 | 0.06 | 0.06 | 87 | 1011.8 |
| 20260904052055 | 58 | 201 | 0.0 | 0.0 | 0.00 | 0.06 | 0.06 | 86 | 1011.8 |
| 20260904051552 | 58 | 201 | 0.0 | 0.0 | 0.00 | 0.06 | 0.06 | 85 | 1011.9 |
| 20260904051050 | 58 | 201 | 0.0 | 0.0 | 0.00 | 0.06 | 0.06 | 85 | 1012.0 |
| 20260904050546 | 58 | 201 | 0.0 | 0.0 | 0.00 | 0.06 | 0.06 | 85 | 1011.7 |
| 20260904050043 | 58 | 201 | 0.0 | 0.0 | 0.00 | 0.06 | 0.06 | 85 | 1012.1 |
| 20260904045538 | 58 | 201 | 0.0 | 0.0 | 0.00 | 0.06 | 0.06 | 85 | 1011.9 |
| 20260904045032 | 58 | 201 | 0.0 | 0.0 | 0.00 | 0.06 | 0.06 | 85 | 1011.9 |
| 20260904044528 | 58 | 201 | 0.0 | 0.0 | 0.00 | 0.06 | 0.06 | 85 | 1011.9 |
| 20260904044024 | 58 | 201 | 0.0 | 0.0 | 0.00 | 0.06 | 0.06 | 85 | 1012.1 |
| 20260904043520 | 58 | 201 | 0.0 | 0.0 | 0.00 | 0.06 | 0.06 | 85 | 1011.9 |
| 20260904043016 | 58 | 201 | 0.0 | 0.0 | 0.00 | 0.06 | 0.06 | 85 | 1012.1 |
| 20260904042512 | 58 | 201 | 0.0 | 0.0 | 0.00 | 0.06 | 0.06 | 85 | 1012.0 |
| 20260904042008 | 57 | 201 | 0.0 | 0.0 | 0.00 | 0.06 | 0.06 | 85 | 1011.8 |
| 20260904041503 | 57 | 201 | 0.0 | 0.0 | 0.00 | 0.06 | 0.06 | 85 | 1012.0 |
| 20260904040959 | 57 | 201 | 0.0 | 0.0 | 0.00 | 0.06 | 0.06 | 85 | 1012.0 |
| 20260904040453 | 57 | 201 | 0.0 | 0.0 | 0.00 | 0.06 | 0.06 | 85 | 1011.9 |
| 20260904035949 | 57 | 201 | 0.0 | 0.0 | 0.00 | 0.06 | 0.06 | 85 | 1011.9 |
| 20260904035445 | 57 | 201 | 0.0 | 0.0 | 0.00 | 0.06 | 0.06 | 85 | 1011.7 |
| 20260904034944 | 58 | 201 | 0.0 | 0.0 | 0.00 | 0.06 | 0.06 | 85 | 1011.7 |
| 20260904034439 | 58 | 201 | 0.0 | 0.0 | 0.00 | 0.06 | 0.06 | 85 | 1011.7 |
| 20260904033935 | 57 | 201 | 0.0 | 0.0 | 0.00 | 0.06 | 0.06 | 86 | 1011.7 |
| 20260904033431 | 57 | 201 | 0.0 | 0.0 | 0.00 | 0.06 | 0.06 | 85 | 1011.7 |
| 20260904032927 | 57 | 201 | 0.0 | 0.0 | 0.00 | 0.06 | 0.06 | 85 | 1011.4 |
| 20260904032423 | 58 | 201 | 0.0 | 0.0 | 0.00 | 0.06 | 0.06 | 84 | 1011.6 |
| 20260904031921 | 58 | 201 | 0.0 | 0.0 | 0.00 | 0.06 | 0.06 | 83 | 1011.5 |
| 20260904031417 | 58 | 201 | 0.0 | 0.0 | 0.00 | 0.06 | 0.06 | 82 | 1011.4 |
| 20260904030914 | 58 | 201 | 0.0 | 0.0 | 0.00 | 0.06 | 0.06 | 82 | 1011.5 |
| 20260904030413 | 58 | 201 | 0.0 | 0.0 | 0.00 | 0.06 | 0.06 | 82 | 1011.2 |
| 20260904025909 | 59 | 201 | 0.0 | 0.0 | 0.00 | 0.06 | 0.06 | 81 | 1011.7 |
| 20260904025404 | 59 | 201 | 0.0 | 0.0 | 0.00 | 0.06 | 0.06 | 80 | 1011.2 |
| 20260904024859 | 59 | 201 | 0.0 | 0.0 | 0.00 | 0.06 | 0.06 | 80 | 1011.4 |
| 20260904024354 | 59 | 201 | 0.0 | 0.0 | 0.00 | 0.06 | 0.06 | 79 | 1011.3 |
| 20260904023850 | 59 | 201 | 0.0 | 0.0 | 0.00 | 0.06 | 0.06 | 79 | 1011.3 |
| 20260904023346 | 60 | 202 | 0.0 | 0.0 | 0.00 | 0.06 | 0.06 | 78 | 1011.3 |
| 20260904022845 | 60 | 202 | 0.0 | 0.0 | 0.00 | 0.06 | 0.06 | 77 | 1011.5 |
| 20260904022342 | 60 | 202 | 0.0 | 0.0 | 0.00 | 0.06 | 0.06 | 77 | 1011.3 |
| 20260904021838 | 61 | 215 | 0.0 | 0.0 | 0.00 | 0.06 | 0.06 | 77 | 1011.2 |
| 20260904021333 | 61 | 215 | 0.0 | 0.0 | 0.00 | 0.06 | 0.06 | 78 | 1011.4 |
| 20260904020828 | 61 | 215 | 0.0 | 0.0 | 0.00 | 0.06 | 0.06 | 77 | 1011.1 |
| 20260904020324 | 61 | 215 | 0.0 | 0.0 | 0.00 | 0.06 | 0.06 | 77 | 1011.0 |
| 20260904015822 | 61 | 226 | 0.0 | 0.9 | 0.00 | 0.06 | 0.06 | 78 | 1011.2 |
| 20260904015318 | 62 | 199 | 0.0 | 0.0 | 0.00 | 0.06 | 0.06 | 78 | 1011.0 |
| 20260904014816 | 62 | 197 | 0.0 | 0.0 | 0.00 | 0.06 | 0.06 | 77 | 1010.9 |
| 20260904014311 | 62 | 201 | 0.0 | 0.9 | 0.00 | 0.06 | 0.06 | 77 | 1011.0 |
| 20260904013807 | 63 | 213 | 0.0 | 0.9 | 0.00 | 0.06 | 0.06 | 75 | 1011.0 |
| 20260904013303 | 64 | 240 | 0.9 | 4.3 | 0.00 | 0.06 | 0.06 | 74 | 1010.8 |
| 20260904012758 | 64 | 220 | 0.0 | 0.0 | 0.00 | 0.06 | 0.06 | 65 | 1011.0 |
| 20260904012253 | 65 | 220 | 0.0 | 0.0 | 0.00 | 0.06 | 0.06 | 66 | 1010.9 |
| 20260904011752 | 65 | 221 | 0.0 | 0.0 | 0.00 | 0.06 | 0.06 | 65 | 1011.0 |
| 20260904011248 | 65 | 214 | 0.0 | 0.0 | 0.00 | 0.06 | 0.06 | 63 | 1011.1 |
| 20260904010748 | 66 | 209 | 0.0 | 0.0 | 0.00 | 0.06 | 0.06 | 64 | 1011.1 |
| 20260904010244 | 66 | 220 | 0.0 | 0.0 | 0.00 | 0.06 | 0.06 | 63 | 1010.8 |
| 20260904005739 | 67 | 220 | 0.0 | 0.0 | 0.00 | 0.06 | 0.06 | 63 | 1010.9 |
| 20260904005235 | 67 | 220 | 0.0 | 0.9 | 0.00 | 0.06 | 0.06 | 61 | 1010.9 |
| 20260904004730 | 67 | 197 | 0.0 | 0.0 | 0.00 | 0.06 | 0.06 | 63 | 1010.8 |
| 20260904004226 | 67 | 216 | 0.0 | 0.0 | 0.00 | 0.06 | 0.06 | 64 | 1010.7 |
| 20260904003720 | 67 | 226 | 0.0 | 1.7 | 0.00 | 0.06 | 0.06 | 63 | 1010.8 |
| 20260904003217 | 68 | 210 | 0.0 | 0.9 | 0.00 | 0.06 | 0.06 | 62 | 1010.6 |
| 20260904002712 | 67 | 208 | 0.0 | 0.0 | 0.00 | 0.06 | 0.06 | 65 | 1010.8 |
| 20260904002208 | 66 | 186 | 0.0 | 0.0 | 0.00 | 0.06 | 0.06 | 66 | 1010.5 |
| 20260904001703 | 66 | 199 | 0.0 | 0.9 | 0.00 | 0.06 | 0.06 | 67 | 1010.8 |
| 20260904001201 | 66 | 161 | 0.0 | 0.0 | 0.00 | 0.06 | 0.06 | 65 | 1010.7 |
| 20260904000657 | 66 | 218 | 0.0 | 0.9 | 0.00 | 0.06 | 0.06 | 65 | 1010.9 |
| 20260904000152 | 66 | 219 | 0.0 | 0.0 | 0.00 | 0.06 | 0.06 | 65 | 1010.8 |
| 20260903235651 | 67 | 81 | 0.0 | 0.9 | 0.00 | 0.06 | 0.06 | 63 | 1010.8 |
| 20260903235148 | 66 | 218 | 0.0 | 0.0 | 0.00 | 0.06 | 0.06 | 65 | 1010.7 |
| 20260903234636 | 66 | 219 | 0.0 | 0.0 | 0.00 | 0.06 | 0.06 | 67 | 1010.8 |
| 20260903234133 | 66 | 218 | 0.0 | 0.0 | 0.00 | 0.06 | 0.06 | 66 | 1010.8 |
| 20260903233629 | 66 | 218 | 0.0 | 0.0 | 0.00 | 0.06 | 0.06 | 68 | 1010.7 |
| 20260903233124 | 66 | 190 | 0.0 | 0.0 | 0.00 | 0.06 | 0.06 | 66 | 1010.7 |
| 20260903232619 | 66 | 206 | 0.0 | 1.7 | 0.00 | 0.06 | 0.06 | 64 | 1010.7 |
| 20260903232114 | 66 | 210 | 0.0 | 0.0 | 0.00 | 0.06 | 0.06 | 64 | 1010.7 |
| 20260903231609 | 66 | 214 | 0.0 | 0.9 | 0.00 | 0.06 | 0.06 | 65 | 1011.0 |
| 20260903231109 | 66 | 206 | 0.0 | 0.9 | 0.00 | 0.06 | 0.06 | 64 | 1010.8 |
| 20260903230605 | 65 | 217 | 0.0 | 0.0 | 0.00 | 0.06 | 0.06 | 66 | 1010.8 |
| 20260903230103 | 65 | 232 | 0.0 | 0.0 | 0.00 | 0.06 | 0.06 | 65 | 1010.9 |
| 20260903225601 | 65 | 221 | 0.0 | 0.9 | 0.00 | 0.06 | 0.06 | 68 | 1010.9 |
| 20260903225057 | 65 | 195 | 0.0 | 0.9 | 0.00 | 0.06 | 0.06 | 68 | 1010.9 |
| 20260903224553 | 65 | 195 | 0.0 | 0.0 | 0.00 | 0.06 | 0.06 | 70 | 1010.8 |
| 20260903224048 | 64 | 196 | 0.0 | 0.0 | 0.00 | 0.06 | 0.06 | 70 | 1011.0 |
| 20260903223543 | 65 | 197 | 0.0 | 0.0 | 0.00 | 0.06 | 0.06 | 67 | 1011.1 |
| 20260903223042 | 65 | 197 | 0.0 | 0.0 | 0.00 | 0.06 | 0.06 | 68 | 1011.1 |
| 20260903222537 | 65 | 196 | 0.0 | 0.0 | 0.00 | 0.06 | 0.06 | 70 | 1011.1 |
| 20260903222036 | 65 | 215 | 0.0 | 0.0 | 0.00 | 0.06 | 0.06 | 71 | 1011.2 |
| 20260903221531 | 65 | 210 | 0.0 | 0.0 | 0.00 | 0.06 | 0.06 | 68 | 1011.1 |
| 20260903221029 | 64 | 210 | 0.0 | 0.0 | 0.00 | 0.06 | 0.06 | 72 | 1011.0 |
| 20260903220528 | 64 | 201 | 0.0 | 0.0 | 0.00 | 0.06 | 0.06 | 72 | 1011.2 |
| 20260903220028 | 63 | 204 | 0.0 | 0.0 | 0.00 | 0.06 | 0.06 | 72 | 1011.2 |
| 20260903215522 | 64 | 214 | 0.0 | 0.0 | 0.00 | 0.06 | 0.06 | 72 | 1011.1 |
| 20260903215022 | 64 | 212 | 0.9 | 1.7 | 0.00 | 0.06 | 0.06 | 70 | 1011.2 |
| 20260903214522 | 63 | 224 | 0.0 | 0.0 | 0.00 | 0.06 | 0.06 | 70 | 1011.2 |
| 20260903214021 | 63 | 246 | 2.6 | 2.6 | 0.00 | 0.06 | 0.06 | 69 | 1011.2 |
| 20260903213517 | 63 | 216 | 0.0 | 0.0 | 0.00 | 0.06 | 0.06 | 74 | 1011.0 |
| 20260903213013 | 63 | 217 | 0.0 | 1.7 | 0.00 | 0.06 | 0.06 | 71 | 1011.2 |
| 20260903212509 | 64 | 248 | 1.7 | 2.6 | 0.00 | 0.06 | 0.06 | 69 | 1011.0 |
| 20260903212003 | 65 | 220 | 0.0 | 0.0 | 0.00 | 0.06 | 0.06 | 67 | 1011.0 |
| 20260903211458 | 65 | 234 | 1.7 | 1.7 | 0.00 | 0.06 | 0.06 | 65 | 1010.9 |
| 20260903210955 | 66 | 228 | 0.0 | 0.9 | 0.00 | 0.06 | 0.06 | 68 | 1011.0 |
| 20260903210454 | 67 | 211 | 0.0 | 4.3 | 0.00 | 0.06 | 0.06 | 63 | 1010.9 |
| 20260903205950 | 69 | 237 | 2.6 | 2.6 | 0.00 | 0.06 | 0.06 | 59 | 1010.7 |
| 20260903205444 | 69 | 212 | 0.9 | 0.9 | 0.00 | 0.06 | 0.06 | 59 | 1010.7 |
| 20260903204939 | 68 | 214 | 0.0 | 2.6 | 0.00 | 0.06 | 0.06 | 61 | 1011.0 |
| 20260903204435 | 68 | 214 | 0.0 | 2.6 | 0.00 | 0.06 | 0.06 | 61 | 1011.1 |
| 20260903203931 | 68 | 211 | 0.0 | 1.7 | 0.00 | 0.06 | 0.06 | 64 | 1010.9 |
| 20260903203426 | 67 | 214 | 0.0 | 2.6 | 0.00 | 0.06 | 0.06 | 63 | 1010.8 |
| 20260903202925 | 65 | 257 | 1.7 | 1.7 | 0.00 | 0.06 | 0.06 | 67 | 1011.0 |
| 20260903202422 | 65 | 254 | 2.6 | 2.6 | 0.00 | 0.06 | 0.06 | 67 | 1010.9 |
| 20260903201921 | 65 | 243 | 0.9 | 1.7 | 0.00 | 0.06 | 0.06 | 68 | 1010.9 |
| 20260903201417 | 64 | 225 | 0.0 | 1.7 | 0.00 | 0.06 | 0.06 | 69 | 1010.8 |
| 20260903200915 | 64 | 241 | 1.7 | 2.6 | 0.00 | 0.06 | 0.06 | 71 | 1011.0 |
| 20260903200410 | 64 | 246 | 3.5 | 5.2 | 0.00 | 0.06 | 0.06 | 69 | 1010.9 |
| 20260903195906 | 64 | 223 | 0.9 | 2.6 | 0.00 | 0.06 | 0.06 | 69 | 1010.9 |
| 20260903195402 | 63 | 237 | 0.9 | 1.7 | 0.00 | 0.06 | 0.06 | 70 | 1010.8 |
| 20260903194856 | 64 | 253 | 2.6 | 4.3 | 0.00 | 0.06 | 0.06 | 68 | 1010.9 |
| 20260903194352 | 64 | 216 | 0.0 | 1.7 | 0.00 | 0.06 | 0.06 | 71 | 1010.9 |
| 20260903193847 | 64 | 236 | 0.9 | 0.9 | 0.00 | 0.06 | 0.06 | 69 | 1010.8 |
| 20260903193344 | 65 | 219 | 0.9 | 1.7 | 0.00 | 0.06 | 0.06 | 67 | 1010.7 |
| 20260903192838 | 65 | 217 | 0.9 | 2.6 | 0.00 | 0.06 | 0.06 | 66 | 1010.6 |
| 20260903192334 | 65 | 238 | 2.6 | 2.6 | 0.00 | 0.06 | 0.06 | 69 | 1010.6 |
| 20260903191831 | 64 | 217 | 0.9 | 2.6 | 0.00 | 0.06 | 0.06 | 69 | 1010.5 |
| 20260903191326 | 64 | 266 | 1.7 | 2.6 | 0.00 | 0.06 | 0.06 | 70 | 1010.9 |
| 20260903190825 | 63 | 211 | 0.9 | 2.6 | 0.00 | 0.06 | 0.06 | 68 | 1010.5 |
| 20260903190320 | 63 | 269 | 2.6 | 4.3 | 0.00 | 0.06 | 0.06 | 70 | 1010.8 |
| 20260903185820 | 62 | 215 | 1.7 | 2.6 | 0.00 | 0.06 | 0.06 | 71 | 1010.7 |
| 20260903185315 | 62 | 220 | 0.0 | 0.9 | 0.00 | 0.06 | 0.06 | 73 | 1010.7 |
| 20260903184811 | 62 | 210 | 2.6 | 2.6 | 0.00 | 0.06 | 0.06 | 70 | 1010.6 |
| 20260903184307 | 63 | 218 | 1.7 | 1.7 | 0.00 | 0.06 | 0.06 | 70 | 1010.7 |
| 20260903183756 | 63 | 255 | 2.6 | 4.3 | 0.00 | 0.06 | 0.06 | 72 | 1010.6 |
| 20260903183250 | 62 | 217 | 0.0 | 1.7 | 0.00 | 0.06 | 0.06 | 74 | 1010.8 |
| 20260903182749 | 62 | 214 | 0.0 | 1.7 | 0.00 | 0.06 | 0.06 | 74 | 1010.6 |
| 20260903182244 | 61 | 212 | 0.0 | 1.7 | 0.00 | 0.06 | 0.06 | 75 | 1010.7 |